createdAt,value
2023-03-14T00:01:12.524Z,64.15
2023-03-14T00:02:44.121Z,63.73
2023-03-14T00:04:17.282Z,63.61
2023-03-14T00:05:48.830Z,63.52
2023-03-14T00:07:20.375Z,63.60
2023-03-14T00:08:52.881Z,63.42
2023-03-14T00:10:25.712Z,63.42
2023-03-14T00:11:58.031Z,63.62
2023-03-14T00:13:29.662Z,63.33
2023-03-14T00:15:01.325Z,63.11
2023-03-14T00:16:32.917Z,63.00
2023-03-14T00:18:04.680Z,62.83
2023-03-14T00:19:37.707Z,63.09
2023-03-14T00:21:10.066Z,63.04
2023-03-14T00:22:42.203Z,63.17
2023-03-14T00:24:14.009Z,63.22
2023-03-14T00:25:45.601Z,63.17
2023-03-14T00:27:17.171Z,63.17
2023-03-14T00:28:52.473Z,63.71
2023-03-14T00:30:24.481Z,65.53
2023-03-14T00:31:56.040Z,67.20
2023-03-14T00:33:27.634Z,68.56
2023-03-14T00:35:01.783Z,72.80
2023-03-14T00:36:33.392Z,76.80
2023-03-14T00:38:05.004Z,78.69
2023-03-14T00:39:36.691Z,79.89
2023-03-14T00:41:09.150Z,81.50
2023-03-14T00:42:40.804Z,82.29
2023-03-14T00:44:12.378Z,82.39
2023-03-14T00:45:43.942Z,83.20
2023-03-14T00:47:15.503Z,84.06
2023-03-14T00:48:48.357Z,83.35
2023-03-14T00:50:21.301Z,84.05
2023-03-14T00:51:52.940Z,83.98
2023-03-14T00:53:25.079Z,84.71
2023-03-14T00:54:56.696Z,84.45
2023-03-14T00:56:28.328Z,84.35
2023-03-14T00:57:59.862Z,84.27
2023-03-14T00:59:31.517Z,84.62
2023-03-14T01:01:06.536Z,84.48
2023-03-14T01:02:38.202Z,84.18
2023-03-14T01:04:09.933Z,84.42
2023-03-14T01:05:43.493Z,83.69
2023-03-14T01:07:15.119Z,83.34
2023-03-14T01:08:46.774Z,83.04
2023-03-14T01:10:18.485Z,82.55
2023-03-14T01:11:50.241Z,82.34
2023-03-14T01:13:22.471Z,81.50
2023-03-14T01:14:54.079Z,81.21
2023-03-14T01:16:27.591Z,80.63
2023-03-14T01:17:59.175Z,80.44
2023-03-14T01:19:30.949Z,80.22
2023-03-14T01:21:11.113Z,80.08
2023-03-14T01:22:43.630Z,79.98
2023-03-14T01:24:15.221Z,79.97
2023-03-14T01:25:46.880Z,79.76
2023-03-14T01:27:18.634Z,79.76
2023-03-14T01:28:51.196Z,79.94
2023-03-14T01:30:23.971Z,79.86
2023-03-14T01:31:55.875Z,79.29
2023-03-14T01:33:28.011Z,79.07
2023-03-14T01:34:59.643Z,79.38
2023-03-14T01:36:32.975Z,78.89
2023-03-14T01:38:07.103Z,78.86
2023-03-14T01:39:38.835Z,78.49
2023-03-14T01:41:14.260Z,78.31
2023-03-14T01:42:46.594Z,77.82
2023-03-14T01:44:18.157Z,77.42
2023-03-14T01:46:19.622Z,77.72
2023-03-14T01:47:52.553Z,76.81
2023-03-14T01:49:27.537Z,76.71
2023-03-14T01:51:07.624Z,76.82
2023-03-14T01:52:43.010Z,76.18
2023-03-14T01:54:17.683Z,76.83
2023-03-14T01:55:49.540Z,75.92
2023-03-14T01:57:23.276Z,76.41
2023-03-14T01:58:55.808Z,76.19
2023-03-14T02:00:27.429Z,76.43
2023-03-14T02:02:00.114Z,76.17
2023-03-14T02:03:35.768Z,75.53
2023-03-14T02:05:08.045Z,76.07
2023-03-14T02:06:45.157Z,76.14
2023-03-14T02:08:20.244Z,75.10
2023-03-14T02:09:56.878Z,74.97
2023-03-14T02:11:31.758Z,75.28
2023-03-14T02:13:22.368Z,75.38
2023-03-14T02:15:22.832Z,75.72
2023-03-14T02:16:59.102Z,75.63
2023-03-14T02:18:49.106Z,76.04
2023-03-14T02:20:35.291Z,76.12
2023-03-14T02:22:09.088Z,75.28
2023-03-14T02:24:10.544Z,75.89
2023-03-14T02:25:52.133Z,75.94
2023-03-14T02:27:25.220Z,74.81
2023-03-14T02:28:57.026Z,75.15
2023-03-14T02:30:29.819Z,74.78
2023-03-14T02:32:02.025Z,74.05
2023-03-14T02:33:33.714Z,73.87
2023-03-14T02:35:07.780Z,73.88
2023-03-14T02:36:39.454Z,73.89
2023-03-14T02:38:16.254Z,73.90
2023-03-14T02:39:50.386Z,74.01
2023-03-14T02:41:23.380Z,73.56
2023-03-14T02:43:05.728Z,73.62
2023-03-14T02:44:47.072Z,74.08
2023-03-14T02:46:20.228Z,73.93
2023-03-14T02:47:54.165Z,73.86
2023-03-14T02:49:27.242Z,73.53
2023-03-14T02:51:00.368Z,73.42
2023-03-14T02:52:32.812Z,73.21
2023-03-14T02:54:05.274Z,73.40
2023-03-14T02:55:37.061Z,73.71
2023-03-14T02:57:15.211Z,73.65
2023-03-14T02:58:48.166Z,73.21
2023-03-14T03:00:42.700Z,73.52
2023-03-14T03:02:16.566Z,73.60
2023-03-14T03:03:48.195Z,73.77
2023-03-14T03:05:19.823Z,73.35
2023-03-14T03:06:51.401Z,73.34
2023-03-14T03:08:24.470Z,73.81
2023-03-14T03:09:56.203Z,73.97
2023-03-14T03:11:27.865Z,73.76
2023-03-14T03:12:59.669Z,73.69
2023-03-14T03:14:33.833Z,73.33
2023-03-14T03:16:09.120Z,73.76
2023-03-14T03:17:40.833Z,74.55
2023-03-14T03:19:14.462Z,74.05
2023-03-14T03:20:46.803Z,74.80
2023-03-14T03:22:18.372Z,74.53
2023-03-14T03:23:50.004Z,74.33
2023-03-14T03:25:21.599Z,73.93
2023-03-14T03:26:55.499Z,74.88
2023-03-14T03:28:27.172Z,74.37
2023-03-14T03:30:01.088Z,75.15
2023-03-14T03:31:37.894Z,75.71
2023-03-14T03:33:09.502Z,75.69
2023-03-14T03:34:41.095Z,77.07
2023-03-14T03:36:12.837Z,77.90
2023-03-14T03:37:45.492Z,78.18
2023-03-14T03:39:17.178Z,79.09
2023-03-14T03:40:51.998Z,80.20
2023-03-14T03:42:24.448Z,80.47
2023-03-14T03:43:57.550Z,81.69
2023-03-14T03:45:30.740Z,81.88
2023-03-14T03:47:02.433Z,82.46
2023-03-14T03:48:34.611Z,82.28
2023-03-14T03:50:09.190Z,82.58
2023-03-14T03:51:40.917Z,83.03
2023-03-14T03:53:15.562Z,83.04
2023-03-14T03:54:47.376Z,83.28
2023-03-14T03:56:18.988Z,83.74
2023-03-14T03:57:50.813Z,83.45
2023-03-14T03:59:22.833Z,83.67
2023-03-14T04:00:55.981Z,82.99
2023-03-14T04:02:27.648Z,83.17
2023-03-14T04:03:59.584Z,83.15
2023-03-14T04:05:32.336Z,83.08
2023-03-14T04:07:08.599Z,82.27
2023-03-14T04:08:41.625Z,82.21
2023-03-14T04:10:15.974Z,82.21
2023-03-14T04:11:54.343Z,82.11
2023-03-14T04:13:26.336Z,82.67
2023-03-14T04:14:59.755Z,82.16
2023-03-14T04:16:32.941Z,81.85
2023-03-14T04:18:10.077Z,82.33
2023-03-14T04:19:43.184Z,81.90
2023-03-14T04:21:15.734Z,82.41
2023-03-14T04:22:53.711Z,82.66
2023-03-14T04:24:25.404Z,81.76
2023-03-14T04:25:57.260Z,81.79
2023-03-14T04:27:30.152Z,81.17
2023-03-14T04:29:02.192Z,80.72
2023-03-14T04:30:33.835Z,80.40
2023-03-14T04:32:19.424Z,80.93
2023-03-14T04:33:51.052Z,80.82
2023-03-14T04:35:28.818Z,79.79
2023-03-14T04:37:04.591Z,80.41
2023-03-14T04:38:41.555Z,81.10
2023-03-14T04:40:13.978Z,81.07
2023-03-14T04:41:47.268Z,80.36
2023-03-14T04:43:19.392Z,80.99
2023-03-14T04:44:57.887Z,79.90
2023-03-14T04:46:31.659Z,79.70
2023-03-14T04:48:05.781Z,79.92
2023-03-14T04:49:37.729Z,80.10
2023-03-14T04:51:10.708Z,79.87
2023-03-14T04:52:42.480Z,79.13
2023-03-14T04:54:14.538Z,79.36
2023-03-14T04:55:48.851Z,78.47
2023-03-14T04:57:20.449Z,78.78
2023-03-14T04:58:52.937Z,77.35
2023-03-14T05:00:24.489Z,76.75
2023-03-14T05:02:08.153Z,76.11
2023-03-14T05:03:49.793Z,75.96
2023-03-14T05:05:49.840Z,76.14
2023-03-14T05:07:40.359Z,76.62
2023-03-14T05:09:45.228Z,76.02
2023-03-14T05:11:30.919Z,75.46
2023-03-14T05:13:13.646Z,74.99
2023-03-14T05:15:14.645Z,74.73
2023-03-14T05:17:15.389Z,75.48
2023-03-14T05:19:06.770Z,75.31
2023-03-14T05:20:57.188Z,75.53
2023-03-14T05:22:53.354Z,75.62
2023-03-14T05:24:31.405Z,75.17
2023-03-14T05:26:06.445Z,75.17
2023-03-14T05:27:38.043Z,75.47
2023-03-14T05:29:28.411Z,75.14
2023-03-14T05:31:11.528Z,74.31
2023-03-14T05:33:06.672Z,75.08
2023-03-14T05:34:48.778Z,74.74
2023-03-14T05:36:40.663Z,74.15
2023-03-14T05:38:49.111Z,73.99
2023-03-14T05:40:41.034Z,74.38
2023-03-14T05:42:25.781Z,74.15
2023-03-14T05:44:10.519Z,74.44
2023-03-14T05:45:49.567Z,74.20
2023-03-14T05:47:39.551Z,75.09
2023-03-14T05:49:28.068Z,74.23
2023-03-14T05:51:20.624Z,74.59
2023-03-14T05:53:15.429Z,74.89
2023-03-14T05:54:57.695Z,74.71
2023-03-14T05:56:52.614Z,75.23
2023-03-14T05:58:37.778Z,75.60
2023-03-14T06:00:19.075Z,75.47
2023-03-14T06:02:17.059Z,75.43
2023-03-14T06:03:58.687Z,75.76
2023-03-14T06:05:30.416Z,76.00
2023-03-14T06:07:06.781Z,75.87
2023-03-14T06:08:38.742Z,75.87
2023-03-14T06:10:11.537Z,76.33
2023-03-14T06:11:44.217Z,76.15
2023-03-14T06:13:16.667Z,76.37
2023-03-14T06:14:49.324Z,76.13
2023-03-14T06:16:20.932Z,76.12
2023-03-14T06:17:54.578Z,76.59
2023-03-14T06:19:26.274Z,75.94
2023-03-14T06:20:58.475Z,76.29
2023-03-14T06:22:33.342Z,76.32
2023-03-14T06:24:05.225Z,76.08
2023-03-14T06:25:42.234Z,76.35
2023-03-14T06:27:13.884Z,76.37
2023-03-14T06:28:45.927Z,75.79
2023-03-14T06:30:18.115Z,76.40
2023-03-14T06:31:50.174Z,76.49
2023-03-14T06:33:23.570Z,76.37
2023-03-14T06:34:55.316Z,76.04
2023-03-14T06:36:29.015Z,76.35
2023-03-14T06:38:03.029Z,75.91
2023-03-14T06:39:34.857Z,75.23
2023-03-14T06:41:13.269Z,75.29
2023-03-14T06:42:52.902Z,75.08
2023-03-14T06:44:26.531Z,75.03
2023-03-14T06:45:58.224Z,75.48
2023-03-14T06:47:30.088Z,75.00
2023-03-14T06:49:02.015Z,75.10
2023-03-14T06:50:35.293Z,75.49
2023-03-14T06:52:06.996Z,75.35
2023-03-14T06:53:40.526Z,76.10
2023-03-14T06:55:14.863Z,75.34
2023-03-14T06:56:47.050Z,75.38
2023-03-14T06:58:19.451Z,75.67
2023-03-14T06:59:51.832Z,75.52
2023-03-14T07:01:25.245Z,76.51
2023-03-14T07:02:58.281Z,77.14
2023-03-14T07:04:34.448Z,78.02
2023-03-14T07:06:07.318Z,78.02
2023-03-14T07:07:39.488Z,78.12
2023-03-14T07:09:13.070Z,79.33
2023-03-14T07:10:48.906Z,78.77
2023-03-14T07:12:22.518Z,79.29
2023-03-14T07:13:56.880Z,79.25
2023-03-14T07:15:30.184Z,79.14
2023-03-14T07:17:06.706Z,79.59
2023-03-14T07:18:38.623Z,78.35
2023-03-14T07:20:11.712Z,79.16
2023-03-14T07:21:44.840Z,78.04
2023-03-14T07:23:18.892Z,78.46
2023-03-14T07:24:58.070Z,78.01
2023-03-14T07:26:30.868Z,78.00
2023-03-14T07:28:02.509Z,77.22
2023-03-14T07:29:34.757Z,77.37
2023-03-14T07:31:08.887Z,77.22
2023-03-14T07:32:40.799Z,76.44
2023-03-14T07:34:12.633Z,76.75
2023-03-14T07:35:48.960Z,76.47
2023-03-14T07:37:20.638Z,76.94
2023-03-14T07:38:53.469Z,76.55
2023-03-14T07:40:29.203Z,76.66
2023-03-14T07:42:01.100Z,77.02
2023-03-14T07:43:48.212Z,76.91
2023-03-14T07:45:19.876Z,77.72
2023-03-14T07:46:51.593Z,77.20
2023-03-14T07:48:25.896Z,77.52
2023-03-14T07:49:57.744Z,77.54
2023-03-14T07:51:29.509Z,78.19
2023-03-14T07:53:01.500Z,77.75
2023-03-14T07:54:33.244Z,77.66
2023-03-14T07:56:07.410Z,77.63
2023-03-14T07:57:39.271Z,77.49
2023-03-14T07:59:11.992Z,76.89
2023-03-14T08:00:44.279Z,76.98
2023-03-14T08:02:16.196Z,77.30
2023-03-14T08:03:47.951Z,76.91
2023-03-14T08:05:20.153Z,76.50
2023-03-14T08:06:51.859Z,75.92
2023-03-14T08:08:23.826Z,76.24
2023-03-14T08:09:55.467Z,76.23
2023-03-14T08:11:28.514Z,75.91
2023-03-14T08:13:00.507Z,76.15
2023-03-14T08:14:32.488Z,75.60
2023-03-14T08:16:05.081Z,75.35
2023-03-14T08:17:37.217Z,75.37
2023-03-14T08:19:09.061Z,75.34
2023-03-14T08:20:41.027Z,75.01
2023-03-14T08:22:12.591Z,75.05
2023-03-14T08:23:44.209Z,75.49
2023-03-14T08:25:15.933Z,74.80
2023-03-14T08:26:49.062Z,74.79
2023-03-14T08:28:20.684Z,74.76
2023-03-14T08:29:52.294Z,74.51
2023-03-14T08:31:24.205Z,75.17
2023-03-14T08:32:57.617Z,75.01
2023-03-14T08:34:29.296Z,74.92
2023-03-14T08:36:02.904Z,74.90
2023-03-14T08:37:35.017Z,75.63
2023-03-14T08:39:08.473Z,75.47
2023-03-14T08:40:40.297Z,74.91
2023-03-14T08:42:13.527Z,75.03
2023-03-14T08:43:45.104Z,75.09
2023-03-14T08:45:17.757Z,75.40
2023-03-14T08:46:49.419Z,75.28
2023-03-14T08:48:21.246Z,76.29
2023-03-14T08:49:52.959Z,77.33
2023-03-14T08:51:24.748Z,78.34
2023-03-14T08:52:58.598Z,78.65
2023-03-14T08:54:30.356Z,79.71
2023-03-14T08:56:02.512Z,79.65
2023-03-14T08:57:35.584Z,80.36
2023-03-14T08:59:07.216Z,80.02
2023-03-14T09:00:40.246Z,79.05
2023-03-14T09:02:13.518Z,79.39
2023-03-14T09:03:45.486Z,78.72
2023-03-14T09:05:17.130Z,78.55
2023-03-14T09:06:48.613Z,78.12
2023-03-14T09:08:20.183Z,77.96
2023-03-14T09:09:52.215Z,77.57
2023-03-14T09:11:23.965Z,77.34
2023-03-14T09:12:58.146Z,77.49
2023-03-14T09:14:30.237Z,77.30
2023-03-14T09:16:02.234Z,80.92
2023-03-14T09:17:34.037Z,84.18
2023-03-14T09:19:06.677Z,84.20
2023-03-14T09:20:38.315Z,84.43
2023-03-14T09:22:09.897Z,81.41
2023-03-14T09:23:41.532Z,81.08
2023-03-14T09:25:13.138Z,80.72
2023-03-14T09:26:44.784Z,82.11
2023-03-14T09:28:18.175Z,82.87
2023-03-14T09:29:49.852Z,83.45
2023-03-14T09:31:21.522Z,83.02
2023-03-14T09:32:53.368Z,84.34
2023-03-14T09:34:25.307Z,84.96
2023-03-14T09:36:01.526Z,86.47
2023-03-14T09:37:33.264Z,87.33
2023-03-14T09:39:05.409Z,87.08
2023-03-14T09:40:37.517Z,87.08
2023-03-14T09:42:13.218Z,87.13
2023-03-14T09:43:47.545Z,86.98
2023-03-14T09:45:24.465Z,86.91
2023-03-14T09:46:58.822Z,87.34
2023-03-14T09:48:31.910Z,87.21
2023-03-14T09:50:04.476Z,86.62
2023-03-14T09:51:36.530Z,86.24
2023-03-14T09:53:13.588Z,87.72
2023-03-14T09:54:47.514Z,87.58
2023-03-14T09:56:21.119Z,87.54
2023-03-14T09:57:56.945Z,87.12
2023-03-14T09:59:30.259Z,86.82
2023-03-14T10:01:04.508Z,86.24
2023-03-14T10:02:36.724Z,85.71
2023-03-14T10:04:14.544Z,85.86
2023-03-14T10:05:46.773Z,86.52
2023-03-14T10:07:20.448Z,86.49
2023-03-14T10:08:54.100Z,87.04
2023-03-14T10:10:26.673Z,86.72
2023-03-14T10:12:08.894Z,87.23
2023-03-14T10:13:48.373Z,87.84
2023-03-14T10:15:25.849Z,86.90
2023-03-14T10:17:05.715Z,85.63
2023-03-14T10:18:38.419Z,85.26
2023-03-14T10:20:28.723Z,84.37
2023-03-14T10:22:01.640Z,85.00
2023-03-14T10:23:34.313Z,84.61
2023-03-14T10:25:08.377Z,83.92
2023-03-14T10:26:40.852Z,83.46
2023-03-14T10:28:24.073Z,84.11
2023-03-14T10:29:59.423Z,84.06
2023-03-14T10:31:46.620Z,83.79
2023-03-14T10:33:21.590Z,83.92
2023-03-14T10:35:06.018Z,83.60
2023-03-14T10:36:37.861Z,83.39
2023-03-14T10:38:13.891Z,83.27
2023-03-14T10:39:47.509Z,84.70
2023-03-14T10:41:21.381Z,85.45
2023-03-14T10:42:53.125Z,84.92
2023-03-14T10:44:26.615Z,85.32
2023-03-14T10:45:59.816Z,85.92
2023-03-14T10:47:33.341Z,85.96
2023-03-14T10:49:06.168Z,85.10
2023-03-14T10:50:38.388Z,85.79
2023-03-14T10:52:20.219Z,90.22
2023-03-14T10:53:57.520Z,93.38
2023-03-14T10:55:29.131Z,94.74
2023-03-14T10:57:02.294Z,96.50
2023-03-14T10:58:36.181Z,97.30
2023-03-14T11:00:14.242Z,98.02
2023-03-14T11:01:49.255Z,99.07
2023-03-14T11:03:22.860Z,99.20
2023-03-14T11:04:58.320Z,98.93
2023-03-14T11:06:35.678Z,99.73
2023-03-14T11:08:09.616Z,100.00
2023-03-14T11:09:43.531Z,100.00
2023-03-14T11:11:18.284Z,100.00
2023-03-14T11:13:03.244Z,100.00
2023-03-14T11:14:37.390Z,100.00
2023-03-14T11:16:15.927Z,100.00
2023-03-14T11:17:52.401Z,100.00
2023-03-14T11:19:39.188Z,100.00
2023-03-14T11:21:13.738Z,100.00
2023-03-14T11:22:48.442Z,100.00
2023-03-14T11:24:28.754Z,100.00
2023-03-14T11:26:04.597Z,100.00
2023-03-14T11:27:41.710Z,99.74
2023-03-14T11:29:21.948Z,99.95
2023-03-14T11:30:54.548Z,100.00
2023-03-14T11:32:37.793Z,98.66
2023-03-14T11:34:16.256Z,97.86
2023-03-14T11:35:56.499Z,97.28
2023-03-14T11:37:32.941Z,95.59
2023-03-14T11:39:09.468Z,94.88
2023-03-14T11:40:41.511Z,96.16
2023-03-14T11:42:16.201Z,96.21
2023-03-14T11:43:48.695Z,95.35
2023-03-14T11:45:22.587Z,94.69
2023-03-14T11:46:56.102Z,91.78
2023-03-14T11:48:34.634Z,89.66
2023-03-14T11:50:11.074Z,88.34
2023-03-14T11:51:47.767Z,87.24
2023-03-14T11:53:22.413Z,86.61
2023-03-14T11:54:56.439Z,83.14
2023-03-14T11:56:32.604Z,84.48
2023-03-14T11:58:10.399Z,82.24
2023-03-14T11:59:45.491Z,80.61
2023-03-14T12:01:22.629Z,81.22
2023-03-14T12:02:58.630Z,81.87
2023-03-14T12:04:36.004Z,81.96
2023-03-14T12:06:14.776Z,79.63
2023-03-14T12:08:02.923Z,76.29
2023-03-14T12:09:35.022Z,77.57
2023-03-14T12:11:12.455Z,77.92
2023-03-14T12:12:44.178Z,77.56
2023-03-14T12:14:20.922Z,76.65
2023-03-14T12:15:55.720Z,74.96
2023-03-14T12:17:34.835Z,74.67
2023-03-14T12:19:25.660Z,75.20
2023-03-14T12:20:58.609Z,75.88
2023-03-14T12:22:31.082Z,76.30
2023-03-14T12:24:04.213Z,74.20
2023-03-14T12:25:36.449Z,74.50
2023-03-14T12:27:14.547Z,74.68
2023-03-14T12:28:50.994Z,74.35
2023-03-14T12:30:28.480Z,73.37
2023-03-14T12:32:11.026Z,72.51
2023-03-14T12:33:42.964Z,73.94
2023-03-14T12:35:33.312Z,73.59
2023-03-14T12:37:13.509Z,73.67
2023-03-14T12:38:50.100Z,74.03
2023-03-14T12:40:31.349Z,73.33
2023-03-14T12:42:05.265Z,73.68
2023-03-14T12:43:38.324Z,74.33
2023-03-14T12:45:24.051Z,75.02
2023-03-14T12:46:55.733Z,75.77
2023-03-14T12:48:27.748Z,74.63
2023-03-14T12:50:08.652Z,74.67
2023-03-14T12:51:42.466Z,73.56
2023-03-14T12:53:38.133Z,74.15
2023-03-14T12:55:13.670Z,72.27
2023-03-14T12:57:00.120Z,73.73
2023-03-14T12:58:36.394Z,76.42
2023-03-14T13:00:18.196Z,80.95
2023-03-14T13:01:56.355Z,84.33
2023-03-14T13:03:37.406Z,88.29
2023-03-14T13:05:12.594Z,90.64
2023-03-14T13:06:48.954Z,90.05
2023-03-14T13:08:33.945Z,89.47
2023-03-14T13:10:18.504Z,89.69
2023-03-14T13:11:50.117Z,89.70
2023-03-14T13:13:22.415Z,88.69
2023-03-14T13:14:58.556Z,86.13
2023-03-14T13:16:30.470Z,84.17
2023-03-14T13:18:03.892Z,83.18
2023-03-14T13:19:35.790Z,81.23
2023-03-14T13:21:10.944Z,81.21
2023-03-14T13:22:47.411Z,81.53
2023-03-14T13:24:22.374Z,80.24
2023-03-14T13:25:54.883Z,78.32
2023-03-14T13:27:26.683Z,78.88
2023-03-14T13:28:58.278Z,77.08
2023-03-14T13:30:37.494Z,76.90
2023-03-14T13:32:17.227Z,78.07
2023-03-14T13:33:57.348Z,78.66
2023-03-14T13:35:30.230Z,76.38
2023-03-14T13:37:02.263Z,74.46
2023-03-14T13:38:35.714Z,71.96
2023-03-14T13:40:19.489Z,71.71
2023-03-14T13:41:51.439Z,69.83
2023-03-14T13:43:26.465Z,65.72
2023-03-14T13:44:58.273Z,67.20
2023-03-14T13:46:34.651Z,64.71
2023-03-14T13:48:06.286Z,65.16
2023-03-14T13:49:38.539Z,63.37
2023-03-14T13:51:13.392Z,63.71
2023-03-14T13:52:47.112Z,62.91
2023-03-14T13:54:19.464Z,63.85
2023-03-14T13:55:51.394Z,64.68
2023-03-14T13:57:23.611Z,65.71
2023-03-14T13:58:55.404Z,65.29
2023-03-14T14:00:28.364Z,66.41
2023-03-14T14:02:04.681Z,66.66
2023-03-14T14:03:39.169Z,65.97
2023-03-14T14:05:11.329Z,65.81
2023-03-14T14:06:48.631Z,62.49
2023-03-14T14:08:21.381Z,62.51
2023-03-14T14:09:54.095Z,63.52
2023-03-14T14:11:44.932Z,61.70
2023-03-14T14:13:22.019Z,61.38
2023-03-14T14:14:57.294Z,58.83
2023-03-14T14:16:29.853Z,57.75
2023-03-14T14:18:05.161Z,59.16
2023-03-14T14:19:38.235Z,56.99
2023-03-14T14:21:11.513Z,55.29
2023-03-14T14:22:43.309Z,55.51
2023-03-14T14:24:15.918Z,56.41
2023-03-14T14:25:49.974Z,56.44
2023-03-14T14:27:28.128Z,54.78
2023-03-14T14:29:01.075Z,54.13
2023-03-14T14:30:34.058Z,55.04
2023-03-14T14:32:12.278Z,54.83
2023-03-14T14:33:46.147Z,55.30
2023-03-14T14:35:24.161Z,54.45
2023-03-14T14:36:56.154Z,55.58
2023-03-14T14:38:29.469Z,55.51
2023-03-14T14:40:02.125Z,55.90
2023-03-14T14:41:35.786Z,56.42
2023-03-14T14:43:07.415Z,56.54
2023-03-14T14:44:39.029Z,50.89
2023-03-14T14:46:11.413Z,49.20
2023-03-14T14:47:49.753Z,49.17
2023-03-14T14:49:28.693Z,48.92
2023-03-14T14:51:01.794Z,47.44
2023-03-14T14:52:35.503Z,47.75
2023-03-14T14:54:17.137Z,47.37
2023-03-14T14:55:50.961Z,45.47
2023-03-14T14:57:24.101Z,46.62
2023-03-14T14:58:59.636Z,45.80
2023-03-14T15:00:32.645Z,46.39
2023-03-14T15:02:05.887Z,45.97
2023-03-14T15:03:37.714Z,45.95
2023-03-14T15:05:14.642Z,45.87
2023-03-14T15:06:47.991Z,45.47
2023-03-14T15:08:19.556Z,46.65
2023-03-14T15:09:51.242Z,47.09
2023-03-14T15:11:23.943Z,46.53
2023-03-14T15:12:55.573Z,47.25
2023-03-14T15:14:27.190Z,47.01
2023-03-14T15:15:59.177Z,47.24
2023-03-14T15:17:31.455Z,45.66
2023-03-14T15:19:21.448Z,44.89
2023-03-14T15:20:56.420Z,44.72
2023-03-14T15:22:28.072Z,42.82
2023-03-14T15:23:59.631Z,43.75
2023-03-14T15:25:53.602Z,42.48
2023-03-14T15:27:23.244Z,44.88
2023-03-14T15:28:54.938Z,44.77
2023-03-14T15:30:26.593Z,43.16
2023-03-14T15:31:58.213Z,44.21
2023-03-14T15:33:30.007Z,41.74
2023-03-14T15:35:01.701Z,41.35
2023-03-14T15:36:36.327Z,42.59
2023-03-14T15:38:10.646Z,42.68
2023-03-14T15:39:42.471Z,43.85
2023-03-14T15:41:14.174Z,43.21
2023-03-14T15:42:45.775Z,43.46
2023-03-14T15:44:17.531Z,43.20
2023-03-14T15:45:49.991Z,42.73
2023-03-14T15:47:21.723Z,41.66
2023-03-14T15:48:53.640Z,43.36
2023-03-14T15:50:26.321Z,43.25
2023-03-14T15:51:59.672Z,42.98
2023-03-14T15:53:31.322Z,43.06
2023-03-14T15:55:02.982Z,42.09
2023-03-14T15:56:35.144Z,41.34
2023-03-14T15:58:06.915Z,41.42
2023-03-14T15:59:38.556Z,41.64
2023-03-14T16:01:10.436Z,42.66
2023-03-14T16:02:42.534Z,41.85
2023-03-14T16:04:14.126Z,43.00
2023-03-14T16:05:46.124Z,42.61
2023-03-14T16:07:19.044Z,42.23
2023-03-14T16:08:50.693Z,43.37
2023-03-14T16:10:22.444Z,42.94
2023-03-14T16:11:54.505Z,43.47
2023-03-14T16:13:26.137Z,43.55
2023-03-14T16:14:57.734Z,42.37
2023-03-14T16:16:29.379Z,42.62
2023-03-14T16:18:04.248Z,42.60
2023-03-14T16:19:40.964Z,43.01
2023-03-14T16:21:13.688Z,42.39
2023-03-14T16:22:46.781Z,42.33
2023-03-14T16:24:18.478Z,42.39
2023-03-14T16:25:50.499Z,42.16
2023-03-14T16:27:22.170Z,42.62
2023-03-14T16:28:54.267Z,42.96
2023-03-14T16:30:26.106Z,42.26
2023-03-14T16:31:57.934Z,42.06
2023-03-14T16:33:31.299Z,42.50
2023-03-14T16:35:03.142Z,42.60
2023-03-14T16:36:35.359Z,41.99
2023-03-14T16:38:08.614Z,42.18
2023-03-14T16:40:01.039Z,42.38
2023-03-14T16:41:31.892Z,43.51
2023-03-14T16:44:57.172Z,43.77
2023-03-14T16:46:30.491Z,43.72
2023-03-14T16:48:02.224Z,43.61
2023-03-14T16:49:34.991Z,43.87
2023-03-14T16:51:06.635Z,44.00
2023-03-14T16:52:38.356Z,43.16
2023-03-14T16:54:14.348Z,43.69
2023-03-14T16:55:46.309Z,44.64
2023-03-14T16:57:17.921Z,44.20
2023-03-14T16:58:50.816Z,43.96
2023-03-14T17:00:23.193Z,44.89
2023-03-14T17:01:55.719Z,44.85
2023-03-14T17:03:27.922Z,44.32
2023-03-14T17:04:59.674Z,43.84
2023-03-14T17:06:31.324Z,43.67
2023-03-14T17:08:03.051Z,44.04
2023-03-14T17:09:36.093Z,43.85
2023-03-14T17:11:10.923Z,44.69
2023-03-14T17:12:43.391Z,43.73
2023-03-14T17:14:15.129Z,43.91
2023-03-14T17:15:52.384Z,43.99
2023-03-14T17:17:24.052Z,43.98
2023-03-14T17:18:55.730Z,43.82
2023-03-14T17:20:27.402Z,44.23
2023-03-14T17:22:21.336Z,44.93
2023-03-14T17:23:50.765Z,44.88
2023-03-14T17:25:23.765Z,44.38
2023-03-14T17:26:55.354Z,45.42
2023-03-14T17:28:27.243Z,44.96
2023-03-14T17:29:58.870Z,44.74
2023-03-14T17:31:30.471Z,45.70
2023-03-14T17:33:02.249Z,45.76
2023-03-14T17:34:33.898Z,46.37
2023-03-14T17:36:06.227Z,46.33
2023-03-14T17:37:38.876Z,46.46
2023-03-14T17:39:10.521Z,46.79
2023-03-14T17:40:46.696Z,46.67
2023-03-14T17:42:18.327Z,46.86
2023-03-14T17:43:50.024Z,46.98
2023-03-14T17:45:21.642Z,46.67
2023-03-14T17:46:53.339Z,46.89
2023-03-14T17:48:24.948Z,46.50
2023-03-14T17:49:56.798Z,46.45
2023-03-14T17:51:28.391Z,45.99
2023-03-14T17:53:00.021Z,45.89
2023-03-14T17:54:31.654Z,45.62
2023-03-14T17:56:04.803Z,46.13
2023-03-14T17:57:37.952Z,45.53
2023-03-14T17:59:10.919Z,45.19
2023-03-14T18:00:42.619Z,45.35
2023-03-14T18:02:14.460Z,45.70
2023-03-14T18:03:46.321Z,45.56
2023-03-14T18:05:18.417Z,44.71
2023-03-14T18:06:50.624Z,43.96
2023-03-14T18:08:22.224Z,44.53
2023-03-14T18:09:54.029Z,44.72
2023-03-14T18:11:27.432Z,44.71
2023-03-14T18:12:59.088Z,45.05
2023-03-14T18:14:31.193Z,44.80
2023-03-14T18:16:03.054Z,45.45
2023-03-14T18:17:35.086Z,45.73
2023-03-14T18:19:06.714Z,46.10
2023-03-14T18:20:38.455Z,46.27
2023-03-14T18:22:10.230Z,46.91
2023-03-14T18:23:42.029Z,46.74
2023-03-14T18:25:13.771Z,46.82
2023-03-14T18:26:47.212Z,47.41
2023-03-14T18:28:19.004Z,47.23
2023-03-14T18:29:50.967Z,47.35
2023-03-14T18:31:25.193Z,48.01
2023-03-14T18:32:56.993Z,48.51
2023-03-14T18:34:28.639Z,48.21
2023-03-14T18:36:00.245Z,48.46
2023-03-14T18:37:31.920Z,47.83
2023-03-14T18:39:06.322Z,48.25
2023-03-14T18:40:37.875Z,48.35
2023-03-14T18:42:10.911Z,48.34
2023-03-14T18:43:43.273Z,48.97
2023-03-14T18:45:15.623Z,49.04
2023-03-14T18:46:48.543Z,48.97
2023-03-14T18:48:20.289Z,49.27
2023-03-14T18:49:51.967Z,49.50
2023-03-14T18:51:25.090Z,49.36
2023-03-14T18:52:56.762Z,48.94
2023-03-14T18:54:28.370Z,48.73
2023-03-14T18:56:00.419Z,48.98
2023-03-14T18:57:33.523Z,48.81
2023-03-14T18:59:05.117Z,48.92
2023-03-14T19:00:37.416Z,48.57
2023-03-14T19:02:09.475Z,48.76
2023-03-14T19:03:43.100Z,49.09
2023-03-14T19:05:16.105Z,49.22
2023-03-14T19:06:47.698Z,49.64
2023-03-14T19:08:19.626Z,49.26
2023-03-14T19:09:51.301Z,49.53
2023-03-14T19:11:23.194Z,49.84
2023-03-14T19:12:56.153Z,50.03
2023-03-14T19:14:27.701Z,49.80
2023-03-14T19:15:59.658Z,50.03
2023-03-14T19:17:31.265Z,49.74
2023-03-14T19:19:02.914Z,49.65
2023-03-14T19:20:34.466Z,49.18
2023-03-14T19:22:06.079Z,49.77
2023-03-14T19:23:39.030Z,49.62
2023-03-14T19:25:10.799Z,49.71
2023-03-14T19:26:42.387Z,49.93
2023-03-14T19:28:15.728Z,50.00
2023-03-14T19:29:47.395Z,49.84
2023-03-14T19:31:19.526Z,49.99
2023-03-14T19:32:51.541Z,49.86
2023-03-14T19:34:23.311Z,50.09
2023-03-14T19:35:55.144Z,50.26
2023-03-14T19:37:26.798Z,50.18
2023-03-14T19:38:59.147Z,50.35
2023-03-14T19:40:30.746Z,50.60
2023-03-14T19:42:02.541Z,50.41
2023-03-14T19:43:35.503Z,50.38
2023-03-14T19:45:08.035Z,50.49
2023-03-14T19:46:39.824Z,50.92
2023-03-14T19:48:11.452Z,50.65
2023-03-14T19:49:43.047Z,50.91
2023-03-14T19:51:15.709Z,50.83
2023-03-14T19:52:47.675Z,51.07
2023-03-14T19:54:19.268Z,50.92
2023-03-14T19:55:50.896Z,51.02
2023-03-14T19:57:22.529Z,51.34
2023-03-14T19:58:55.508Z,51.41
2023-03-14T20:00:27.545Z,51.60
2023-03-14T20:01:59.329Z,51.57
2023-03-14T20:03:31.557Z,52.03
2023-03-14T20:05:03.170Z,51.68
2023-03-14T20:06:34.848Z,51.66
2023-03-14T20:08:06.524Z,51.76
2023-03-14T20:09:38.175Z,51.80
2023-03-14T20:11:10.810Z,51.80
2023-03-14T20:12:42.537Z,51.73
2023-03-14T20:14:16.338Z,51.98
2023-03-14T20:15:48.256Z,52.08
2023-03-14T20:17:19.800Z,51.75
2023-03-14T20:18:51.531Z,51.86
2023-03-14T20:20:23.234Z,51.69